Terminal Aerodrome Forecast
Issued by NWS

Home | Current Version | Previous Version | Graphics & Text | Print | Product List | Glossary On
Versions: 1 2 3 4 5 6 7 8 9 10 11 12 13 14
000
FTUS45 KGGW 250847 AAA
TAFSDY
TAF AMD
KSDY 250847Z 2509/2606 VRB06KT 2SM -SN SCT015 OVC025
     FM251000 VRB06KT P6SM SCT015 OVC025
     FM251900 25007KT P6SM BKN015 OVC017
     FM252100 20008KT 6SM -SHSN SCT024 OVC025
     FM260200 29010KT P6SM SCT030 BKN035
     FM260500 32006KT P6SM SCT009 BKN015=

USA.gov is the U.S. government's official web portal to all federal, state and local government web resources and services.